Time;durP1;ratioP1;P1;durP2;ratioP2;P2;SDS_P1;SDS_P2;PMS_P1;PMS_P2;Temp;Humidity;BMP_temperature;BMP_pressure;BME280_temperature;BME280_humidity;BME280_pressure;Samples;Min_cycle;Max_cycle;Signal;HPM_P1;HPM_P2
2023/11/21 00:01:34;;;;;;;98.13;6.47;;;;;;;;;;5004652;28;20272;-54
2023/11/21 00:04:01;;;;;;;106.93;6.93;;;;;;;;;;5006501;28;20136;-54
2023/11/21 00:06:26;;;;;;;116.88;7.15;;;;;;;;;;5006877;28;20494;-54
2023/11/21 00:08:51;;;;;;;123.30;8.43;;;;;;;;;;5004749;28;20021;-54
2023/11/21 00:11:17;;;;;;;65.07;5.13;;;;;;;;;;5005796;28;20041;-53
2023/11/21 00:13:42;;;;;;;103.78;6.18;;;;;;;;;;5004586;28;20034;-54
2023/11/21 00:16:07;;;;;;;105.45;6.03;;;;;;;;;;5004215;28;20628;-53
2023/11/21 00:18:32;;;;;;;80.97;5.50;;;;;;;;;;5005530;28;20021;-53
2023/11/21 00:20:58;;;;;;;131.88;8.23;;;;;;;;;;5002692;28;20591;-54
2023/11/21 00:23:24;;;;;;;91.60;6.28;;;;;;;;;;5006233;28;20032;-54
2023/11/21 00:25:49;;;;;;;96.35;6.20;;;;;;;;;;5003730;28;20067;-54
2023/11/21 00:28:15;;;;;;;61.70;4.70;;;;;;;;;;5007787;28;20040;-53
2023/11/21 00:30:40;;;;;;;85.65;5.28;;;;;;;;;;5004626;28;20280;-54
2023/11/21 00:33:05;;;;;;;166.07;9.93;;;;;;;;;;5002031;28;20042;-54
2023/11/21 00:35:30;;;;;;;98.22;6.90;;;;;;;;;;5005337;28;20030;-54
2023/11/21 00:37:55;;;;;;;107.90;6.72;;;;;;;;;;5006202;28;20014;-54
2023/11/21 00:40:21;;;;;;;130.23;7.77;;;;;;;;;;5002994;28;20048;-53
2023/11/21 00:42:47;;;;;;;78.75;5.43;;;;;;;;;;5006012;28;20375;-54
2023/11/21 00:45:12;;;;;;;64.28;4.78;;;;;;;;;;5002844;28;20260;-54
2023/11/21 00:47:38;;;;;;;104.15;6.40;;;;;;;;;;5005005;28;20124;-53
2023/11/21 00:50:06;;;;;;;141.55;9.13;;;;;;;;;;5003692;28;20643;-53
2023/11/21 00:52:31;;;;;;;82.35;5.55;;;;;;;;;;5002946;28;20064;-53
2023/11/21 00:54:58;;;;;;;132.98;8.35;;;;;;;;;;5002560;28;20497;-53
2023/11/21 00:57:24;;;;;;;102.43;6.03;;;;;;;;;;5004301;28;20030;-53
2023/11/21 00:59:49;;;;;;;84.13;5.47;;;;;;;;;;5001584;28;20071;-53
2023/11/21 01:02:15;;;;;;;87.97;5.47;;;;;;;;;;5003551;28;20057;-53
2023/11/21 01:04:40;;;;;;;98.93;6.80;;;;;;;;;;5002059;28;20030;-54
2023/11/21 01:07:05;;;;;;;126.85;8.07;;;;;;;;;;5003173;28;20077;-52
2023/11/21 01:09:31;;;;;;;97.23;6.10;;;;;;;;;;5005111;28;20371;-53
2023/11/21 01:11:56;;;;;;;166.23;9.88;;;;;;;;;;5002025;28;20463;-53
2023/11/21 01:14:22;;;;;;;81.60;5.25;;;;;;;;;;5006323;28;20108;-53
2023/11/21 01:16:48;;;;;;;75.43;5.13;;;;;;;;;;5004899;28;20052;-54
2023/11/21 01:19:13;;;;;;;109.85;6.88;;;;;;;;;;5004137;28;20119;-54
2023/11/21 01:21:39;;;;;;;102.00;6.10;;;;;;;;;;5002841;28;20089;-54
2023/11/21 01:24:07;;;;;;;118.97;7.63;;;;;;;;;;5002879;28;20490;-54
2023/11/21 01:26:32;;;;;;;109.38;6.90;;;;;;;;;;5002968;28;20030;-54
2023/11/21 01:28:57;;;;;;;149.75;9.88;;;;;;;;;;5002122;28;20033;-54
2023/11/21 01:31:22;;;;;;;95.33;6.87;;;;;;;;;;5004078;28;20029;-54
2023/11/21 01:33:48;;;;;;;97.32;7.15;;;;;;;;;;5009893;28;20816;-54
2023/11/21 01:36:13;;;;;;;126.85;7.82;;;;;;;;;;5004709;28;20030;-53
2023/11/21 01:38:39;;;;;;;72.20;5.20;;;;;;;;;;5006519;28;20097;-53
2023/11/21 01:41:04;;;;;;;150.77;10.43;;;;;;;;;;5005084;28;20586;-53
2023/11/21 01:43:31;;;;;;;124.65;8.05;;;;;;;;;;5007940;28;20681;-54
2023/11/21 01:45:56;;;;;;;113.88;7.88;;;;;;;;;;5004556;28;20342;-53
2023/11/21 01:48:22;;;;;;;86.28;6.38;;;;;;;;;;5006143;28;20215;-54
2023/11/21 01:50:48;;;;;;;104.78;7.07;;;;;;;;;;5006870;28;20103;-53
2023/11/21 01:53:14;;;;;;;82.70;6.43;;;;;;;;;;5004810;28;20461;-53
2023/11/21 01:55:40;;;;;;;89.22;6.22;;;;;;;;;;5007587;28;20050;-53
2023/11/21 01:58:07;;;;;;;140.05;8.45;;;;;;;;;;5007367;28;20040;-53
2023/11/21 02:00:33;;;;;;;127.05;8.15;;;;;;;;;;5007853;28;20026;-53
2023/11/21 02:02:59;;;;;;;112.57;7.32;;;;;;;;;;5007244;28;20026;-53
2023/11/21 02:05:25;;;;;;;93.63;6.50;;;;;;;;;;5008429;28;20049;-53
2023/11/21 02:07:52;;;;;;;101.97;6.72;;;;;;;;;;5007624;28;20541;-54
2023/11/21 02:10:22;;;;;;;81.18;5.60;;;;;;;;;;5007707;28;20036;-54
2023/11/21 02:12:47;;;;;;;75.75;5.47;;;;;;;;;;5007319;28;20215;-53
2023/11/21 02:15:19;;;;;;;106.95;7.43;;;;;;;;;;5007746;28;20129;-54
2023/11/21 02:17:46;;;;;;;59.00;4.95;;;;;;;;;;4986645;28;20119;-54
2023/11/21 02:20:15;;;;;;;144.20;9.02;;;;;;;;;;4988075;28;20555;-54
2023/11/21 02:22:41;;;;;;;121.97;7.63;;;;;;;;;;4987196;28;20138;-54
2023/11/21 02:25:07;;;;;;;124.15;7.65;;;;;;;;;;4986861;28;20454;-54
2023/11/21 02:27:33;;;;;;;101.95;6.75;;;;;;;;;;4987101;28;20541;-54
2023/11/21 02:29:58;;;;;;;143.60;9.18;;;;;;;;;;4987353;28;20113;-53
2023/11/21 02:32:25;;;;;;;108.47;6.47;;;;;;;;;;4985214;28;20034;-54
2023/11/21 02:34:51;;;;;;;90.60;5.65;;;;;;;;;;4989002;28;20017;-54
2023/11/21 02:37:16;;;;;;;94.72;6.22;;;;;;;;;;4985512;28;20406;-53
2023/11/21 02:39:41;;;;;;;95.83;5.77;;;;;;;;;;4986766;28;20350;-54
2023/11/21 02:42:06;;;;;;;133.27;8.43;;;;;;;;;;4985477;28;20652;-53
2023/11/21 02:44:32;;;;;;;104.85;6.40;;;;;;;;;;4989426;28;20018;-54
2023/11/21 02:46:57;;;;;;;119.00;7.10;;;;;;;;;;4982515;28;20042;-54
2023/11/21 02:49:22;;;;;;;109.10;6.60;;;;;;;;;;4985268;28;20245;-54
2023/11/21 02:51:48;;;;;;;83.90;5.37;;;;;;;;;;4985943;28;20034;-54
2023/11/21 02:54:13;;;;;;;169.23;10.13;;;;;;;;;;4985713;28;20340;-54
2023/11/21 02:56:39;;;;;;;82.55;5.85;;;;;;;;;;4987699;28;20521;-54
2023/11/21 02:59:05;;;;;;;146.70;9.27;;;;;;;;;;4987819;28;20022;-53
2023/11/21 03:01:30;;;;;;;105.40;6.43;;;;;;;;;;4986983;28;20041;-53
2023/11/21 03:03:56;;;;;;;112.18;6.60;;;;;;;;;;4986042;28;20123;-53
2023/11/21 03:06:22;;;;;;;87.72;5.93;;;;;;;;;;4985796;28;20133;-53
2023/11/21 03:08:47;;;;;;;76.68;5.18;;;;;;;;;;4987204;28;20464;-54
2023/11/21 03:11:12;;;;;;;161.43;9.75;;;;;;;;;;4984954;28;20093;-54
2023/11/21 03:13:39;;;;;;;92.30;6.05;;;;;;;;;;4984659;28;20033;-54
2023/11/21 03:16:04;;;;;;;131.77;8.63;;;;;;;;;;4985338;28;20113;-53
2023/11/21 03:18:29;;;;;;;134.63;7.57;;;;;;;;;;4985588;28;20022;-54
2023/11/21 03:20:55;;;;;;;73.72;5.25;;;;;;;;;;4986148;28;20038;-54
2023/11/21 03:23:20;;;;;;;72.63;5.53;;;;;;;;;;4985352;28;20253;-53
2023/11/21 03:25:45;;;;;;;102.25;6.63;;;;;;;;;;4985516;28;20270;-54
2023/11/21 03:28:11;;;;;;;137.02;8.60;;;;;;;;;;4986875;28;20030;-53
2023/11/21 03:30:36;;;;;;;93.82;5.93;;;;;;;;;;4986908;28;20550;-53
2023/11/21 03:33:01;;;;;;;148.90;8.80;;;;;;;;;;4982983;28;20176;-54
2023/11/21 03:35:27;;;;;;;93.72;5.93;;;;;;;;;;4986337;28;20424;-54
2023/11/21 03:37:53;;;;;;;70.93;5.07;;;;;;;;;;4987891;28;20014;-54
2023/11/21 03:40:18;;;;;;;86.30;5.65;;;;;;;;;;4987000;28;20076;-54
2023/11/21 03:42:43;;;;;;;127.55;7.53;;;;;;;;;;5003540;28;20379;-53
2023/11/21 03:45:09;;;;;;;101.15;6.63;;;;;;;;;;5003404;28;20021;-54
2023/11/21 03:47:34;;;;;;;87.68;5.93;;;;;;;;;;5006378;28;20095;-54
2023/11/21 03:49:59;;;;;;;111.97;7.28;;;;;;;;;;5004327;28;20084;-53
2023/11/21 03:52:25;;;;;;;94.88;6.30;;;;;;;;;;5004930;28;20030;-54
2023/11/21 03:54:50;;;;;;;75.07;5.82;;;;;;;;;;5005664;28;20035;-53
2023/11/21 03:57:15;;;;;;;120.38;7.90;;;;;;;;;;5004560;28;20037;-54
2023/11/21 03:59:41;;;;;;;98.60;6.95;;;;;;;;;;5006662;28;20378;-54
2023/11/21 04:02:07;;;;;;;106.90;7.20;;;;;;;;;;5003729;28;20042;-53
2023/11/21 04:04:32;;;;;;;98.65;6.75;;;;;;;;;;5005587;28;20021;-53
2023/11/21 04:06:58;;;;;;;137.75;8.45;;;;;;;;;;5003653;28;20595;-54
2023/11/21 04:09:25;;;;;;;96.33;6.83;;;;;;;;;;5004790;28;20033;-53
2023/11/21 04:11:50;;;;;;;113.85;7.57;;;;;;;;;;5003850;28;20292;-54
2023/11/21 04:14:15;;;;;;;149.48;9.65;;;;;;;;;;5002823;28;20040;-54
2023/11/21 04:16:41;;;;;;;85.22;6.15;;;;;;;;;;5006277;28;20045;-53
2023/11/21 04:19:07;;;;;;;144.25;10.05;;;;;;;;;;5004801;28;20017;-53
2023/11/21 04:21:33;;;;;;;120.13;7.82;;;;;;;;;;5004090;28;20044;-54
2023/11/21 04:23:58;;;;;;;119.75;8.00;;;;;;;;;;5004116;28;20033;-53
2023/11/21 04:26:23;;;;;;;104.17;7.73;;;;;;;;;;5002879;28;20112;-53
2023/11/21 04:28:48;;;;;;;65.68;6.00;;;;;;;;;;5011893;28;20358;-53
2023/11/21 04:31:14;;;;;;;143.33;9.20;;;;;;;;;;5002376;28;20056;-53
2023/11/21 04:33:39;;;;;;;95.55;7.10;;;;;;;;;;5004996;28;20280;-54
2023/11/21 04:36:04;;;;;;;121.95;8.52;;;;;;;;;;5004378;28;20476;-54
2023/11/21 04:38:30;;;;;;;100.70;7.03;;;;;;;;;;5006213;28;20023;-53
2023/11/21 04:40:55;;;;;;;103.03;7.07;;;;;;;;;;5004038;28;20037;-53
2023/11/21 04:43:20;;;;;;;96.90;7.07;;;;;;;;;;5004186;28;20272;-54
2023/11/21 04:45:45;;;;;;;91.03;7.25;;;;;;;;;;5004586;28;20355;-54
2023/11/21 04:48:10;;;;;;;147.93;10.13;;;;;;;;;;5003570;28;20152;-53
2023/11/21 04:50:36;;;;;;;99.20;6.85;;;;;;;;;;5005136;28;20260;-54
2023/11/21 04:53:01;;;;;;;85.67;6.70;;;;;;;;;;5004915;28;20430;-54
2023/11/21 04:55:28;;;;;;;128.85;8.68;;;;;;;;;;4999788;28;20645;-54
2023/11/21 04:57:53;;;;;;;80.47;6.78;;;;;;;;;;5005664;28;20121;-54
2023/11/21 05:00:18;;;;;;;150.02;10.70;;;;;;;;;;5000311;28;20104;-53
2023/11/21 05:02:44;;;;;;;86.00;6.32;;;;;;;;;;5005124;28;20367;-53
2023/11/21 05:05:10;;;;;;;135.63;9.15;;;;;;;;;;5005606;28;20029;-54
2023/11/21 05:07:36;;;;;;;95.15;7.55;;;;;;;;;;5005034;28;20033;-53
2023/11/21 05:10:03;;;;;;;94.78;7.53;;;;;;;;;;5005580;28;20030;-54
2023/11/21 05:12:33;;;;;;;122.15;8.00;;;;;;;;;;5002470;28;20034;-53
2023/11/21 05:14:58;;;;;;;79.65;6.50;;;;;;;;;;5003915;28;20029;-54
2023/11/21 05:17:23;;;;;;;97.13;7.57;;;;;;;;;;5001847;28;20201;-54
2023/11/21 05:19:48;;;;;;;106.72;7.97;;;;;;;;;;5003354;28;20327;-54
2023/11/21 05:22:14;;;;;;;105.37;7.90;;;;;;;;;;5001471;28;20120;-54
2023/11/21 05:24:39;;;;;;;83.05;6.95;;;;;;;;;;5004619;28;20364;-54
2023/11/21 05:27:04;;;;;;;108.60;8.18;;;;;;;;;;5000863;28;20068;-54
2023/11/21 05:29:29;;;;;;;96.53;7.28;;;;;;;;;;5005107;28;20274;-54
2023/11/21 05:31:55;;;;;;;101.50;7.83;;;;;;;;;;5002546;28;20338;-54
2023/11/21 05:34:20;;;;;;;176.13;11.90;;;;;;;;;;5008558;28;20279;-54
2023/11/21 05:36:46;;;;;;;102.45;7.97;;;;;;;;;;5004144;28;20585;-54
2023/11/21 05:39:11;;;;;;;157.95;11.50;;;;;;;;;;5001597;28;20029;-54
2023/11/21 05:41:36;;;;;;;97.32;8.32;;;;;;;;;;5002171;28;20083;-54
2023/11/21 05:44:02;;;;;;;130.70;9.60;;;;;;;;;;5003648;28;20346;-54
2023/11/21 05:46:27;;;;;;;99.57;8.18;;;;;;;;;;4999050;28;20335;-54
2023/11/21 05:48:52;;;;;;;98.78;8.02;;;;;;;;;;5005078;28;20026;-55
2023/11/21 05:51:18;;;;;;;162.10;11.65;;;;;;;;;;5000305;28;20065;-54
2023/11/21 05:53:43;;;;;;;103.53;9.13;;;;;;;;;;5004755;28;20084;-55
2023/11/21 05:56:08;;;;;;;107.80;8.60;;;;;;;;;;5002880;28;20092;-54
2023/11/21 05:58:33;;;;;;;127.70;9.57;;;;;;;;;;5004538;28;20568;-57
2023/11/21 06:00:59;;;;;;;100.57;8.38;;;;;;;;;;5003792;28;20042;-53
2023/11/21 06:03:25;;;;;;;136.93;10.20;;;;;;;;;;5003373;28;20248;-54
2023/11/21 06:05:50;;;;;;;128.65;9.05;;;;;;;;;;5002219;28;20096;-54
2023/11/21 06:08:16;;;;;;;136.80;10.25;;;;;;;;;;5004055;28;20469;-54
2023/11/21 06:10:42;;;;;;;83.85;7.13;;;;;;;;;;5001828;28;20108;-55
2023/11/21 06:13:10;;;;;;;131.63;9.73;;;;;;;;;;5004880;28;20030;-54
2023/11/21 06:15:35;;;;;;;143.10;9.98;;;;;;;;;;5001044;28;20049;-55
2023/11/21 06:18:01;;;;;;;127.68;10.02;;;;;;;;;;5005702;28;20083;-54
2023/11/21 06:20:26;;;;;;;109.95;9.10;;;;;;;;;;5005137;28;22428;-54
2023/11/21 06:22:51;;;;;;;130.55;10.38;;;;;;;;;;5005864;28;20026;-54
2023/11/21 06:25:17;;;;;;;141.32;10.82;;;;;;;;;;5005446;28;20033;-54
2023/11/21 06:27:45;;;;;;;100.40;10.45;;;;;;;;;;5006969;28;20105;-55
2023/11/21 06:30:11;;;;;;;163.23;13.85;;;;;;;;;;5007538;28;20029;-54
2023/11/21 06:32:37;;;;;;;112.93;11.13;;;;;;;;;;4985826;28;20041;-53
2023/11/21 06:35:03;;;;;;;91.75;9.50;;;;;;;;;;4987672;28;20026;-57
2023/11/21 06:37:29;;;;;;;96.95;8.95;;;;;;;;;;4985153;28;20044;-56
2023/11/21 06:39:56;;;;;;;101.15;8.55;;;;;;;;;;4986237;28;20027;-56
2023/11/21 06:42:21;;;;;;;170.10;19.33;;;;;;;;;;4988178;28;20039;-53
2023/11/21 06:44:47;;;;;;;164.65;17.20;;;;;;;;;;4985682;28;20034;-54
2023/11/21 06:47:12;;;;;;;169.85;14.18;;;;;;;;;;4983398;28;20698;-57
2023/11/21 06:49:38;;;;;;;85.75;8.40;;;;;;;;;;4984872;28;20280;-57
2023/11/21 06:52:03;;;;;;;90.43;8.57;;;;;;;;;;4985404;28;20038;-57
2023/11/21 06:54:30;;;;;;;118.05;9.80;;;;;;;;;;4983119;28;20026;-57
2023/11/21 06:56:56;;;;;;;89.82;8.93;;;;;;;;;;4985311;28;20046;-55
2023/11/21 06:59:21;;;;;;;160.93;12.38;;;;;;;;;;4985168;28;20087;-53
2023/11/21 07:01:47;;;;;;;104.07;9.80;;;;;;;;;;4987220;28;20284;-53
2023/11/21 07:04:12;;;;;;;152.13;12.18;;;;;;;;;;4985969;28;20030;-55
2023/11/21 07:06:37;;;;;;;90.90;9.20;;;;;;;;;;4984747;28;21374;-54
2023/11/21 07:09:03;;;;;;;122.88;10.63;;;;;;;;;;4984972;28;20776;-53
2023/11/21 07:11:28;;;;;;;143.20;11.30;;;;;;;;;;4985107;28;20104;-53
2023/11/21 07:13:53;;;;;;;117.10;10.07;;;;;;;;;;4987245;28;20033;-53
2023/11/21 07:16:19;;;;;;;133.50;12.07;;;;;;;;;;4984899;28;20033;-53
2023/11/21 07:18:44;;;;;;;132.02;11.65;;;;;;;;;;4985907;28;20291;-53
2023/11/21 07:21:11;;;;;;;105.32;11.07;;;;;;;;;;4986040;28;20530;-54
2023/11/21 07:23:37;;;;;;;104.20;10.65;;;;;;;;;;4988846;28;20072;-52
2023/11/21 07:26:02;;;;;;;136.13;11.45;;;;;;;;;;4984118;28;20473;-54
2023/11/21 07:28:28;;;;;;;169.48;14.02;;;;;;;;;;4983282;28;20057;-53
2023/11/21 07:30:53;;;;;;;90.53;9.57;;;;;;;;;;4984897;28;20392;-54
2023/11/21 07:33:18;;;;;;;140.02;12.15;;;;;;;;;;4985123;28;20050;-53
2023/11/21 07:35:43;;;;;;;156.60;12.18;;;;;;;;;;4984333;28;20034;-53
2023/11/21 07:38:09;;;;;;;95.60;10.02;;;;;;;;;;4986394;28;20026;-54
2023/11/21 07:40:34;;;;;;;98.55;10.18;;;;;;;;;;4983963;28;20150;-54
2023/11/21 07:42:59;;;;;;;123.13;10.93;;;;;;;;;;4983736;28;20416;-54
2023/11/21 07:45:27;;;;;;;139.10;12.38;;;;;;;;;;4982894;28;20025;-54
2023/11/21 07:47:52;;;;;;;107.05;10.13;;;;;;;;;;4986466;28;20397;-54
2023/11/21 07:50:18;;;;;;;158.15;14.00;;;;;;;;;;4984302;28;20030;-53
2023/11/21 07:52:43;;;;;;;120.93;11.20;;;;;;;;;;4984586;28;20042;-54
2023/11/21 07:55:08;;;;;;;94.03;10.15;;;;;;;;;;4987136;28;20037;-54
2023/11/21 07:57:33;;;;;;;114.60;11.27;;;;;;;;;;4984846;28;20129;-54
2023/11/21 08:00:00;;;;;;;109.87;9.87;;;;;;;;;;4986354;28;20514;-53
2023/11/21 08:02:26;;;;;;;117.70;10.23;;;;;;;;;;4981100;28;20316;-55
2023/11/21 08:04:51;;;;;;;65.60;8.38;;;;;;;;;;4990637;28;20018;-55
2023/11/21 08:07:17;;;;;;;119.40;11.27;;;;;;;;;;4987823;28;20038;-54
2023/11/21 08:09:44;;;;;;;87.28;9.43;;;;;;;;;;4989394;28;20080;-54
2023/11/21 08:12:10;;;;;;;62.97;8.02;;;;;;;;;;4989678;28;20043;-54
2023/11/21 08:14:38;;;;;;;99.75;8.82;;;;;;;;;;4986948;28;20467;-54
2023/11/21 08:17:04;;;;;;;82.07;8.65;;;;;;;;;;4989124;28;20034;-54
2023/11/21 08:19:29;;;;;;;141.82;11.88;;;;;;;;;;4987465;28;20020;-53
2023/11/21 08:21:54;;;;;;;80.35;8.15;;;;;;;;;;4988951;28;20498;-54
2023/11/21 08:24:20;;;;;;;91.87;8.43;;;;;;;;;;4988821;28;20022;-53
2023/11/21 08:26:45;;;;;;;54.75;7.50;;;;;;;;;;4988180;28;20650;-56
2023/11/21 08:29:11;;;;;;;56.83;7.57;;;;;;;;;;4988434;28;20438;-53
2023/11/21 08:31:37;;;;;;;85.70;9.10;;;;;;;;;;4983659;28;20360;-53
2023/11/21 08:34:02;;;;;;;77.15;8.35;;;;;;;;;;4989204;28;20027;-52
2023/11/21 08:36:28;;;;;;;155.27;12.52;;;;;;;;;;4984733;28;20057;-52
2023/11/21 08:38:53;;;;;;;57.58;7.68;;;;;;;;;;4989546;28;20054;-54
2023/11/21 08:41:21;;;;;;;86.67;8.87;;;;;;;;;;4986992;28;20042;-54
2023/11/21 08:43:48;;;;;;;87.88;8.95;;;;;;;;;;4988416;28;20305;-53
2023/11/21 08:46:13;;;;;;;68.00;7.88;;;;;;;;;;4987766;28;20511;-54
2023/11/21 08:48:38;;;;;;;82.75;8.35;;;;;;;;;;4986884;28;20027;-54
2023/11/21 08:51:04;;;;;;;89.07;9.02;;;;;;;;;;4985855;28;20031;-54
2023/11/21 08:53:30;;;;;;;129.38;11.25;;;;;;;;;;4985665;28;20026;-54
2023/11/21 08:55:56;;;;;;;77.22;8.73;;;;;;;;;;4987927;28;20070;-55
2023/11/21 08:58:21;;;;;;;138.60;13.00;;;;;;;;;;4986727;28;20049;-54
2023/11/21 09:00:46;;;;;;;62.75;8.15;;;;;;;;;;4988678;28;20073;-53
2023/11/21 09:03:12;;;;;;;88.15;9.90;;;;;;;;;;4987608;28;20073;-55
2023/11/21 09:05:38;;;;;;;91.30;10.57;;;;;;;;;;4986618;28;20049;-55
2023/11/21 09:08:04;;;;;;;67.93;10.05;;;;;;;;;;4988653;28;20046;-54
2023/11/21 09:10:29;;;;;;;141.75;14.40;;;;;;;;;;4986883;28;20065;-54
2023/11/21 09:12:54;;;;;;;100.47;10.55;;;;;;;;;;4990581;28;20394;-54
2023/11/21 09:15:20;;;;;;;100.85;10.40;;;;;;;;;;4987500;28;20088;-54
2023/11/21 09:17:45;;;;;;;86.10;10.15;;;;;;;;;;4986374;28;20080;-54
2023/11/21 09:20:11;;;;;;;84.18;9.45;;;;;;;;;;4987607;28;20034;-54
2023/11/21 09:22:36;;;;;;;89.38;9.45;;;;;;;;;;4984068;28;20018;-54
2023/11/21 09:25:04;;;;;;;63.63;8.30;;;;;;;;;;4987207;28;20144;-54
2023/11/21 09:27:35;;;;;;;145.30;12.40;;;;;;;;;;4985321;28;20070;-55
2023/11/21 09:30:01;;;;;;;66.10;8.02;;;;;;;;;;4989377;28;20084;-55
2023/11/21 09:32:26;;;;;;;124.57;12.52;;;;;;;;;;4989063;28;20042;-55
2023/11/21 09:34:52;;;;;;;70.47;8.32;;;;;;;;;;4988125;28;20069;-54
2023/11/21 09:37:18;;;;;;;82.32;8.30;;;;;;;;;;4988056;28;20030;-54
2023/11/21 09:39:44;;;;;;;64.93;8.15;;;;;;;;;;4990388;28;20041;-54
2023/11/21 09:42:10;;;;;;;55.05;7.75;;;;;;;;;;4989155;28;20034;-55
2023/11/21 09:44:42;;;;;;;143.07;12.57;;;;;;;;;;4987427;28;20029;-54
2023/11/21 09:47:10;;;;;;;83.47;9.45;;;;;;;;;;4988313;28;20038;-54
2023/11/21 09:49:37;;;;;;;129.80;11.55;;;;;;;;;;4988476;28;20018;-55
2023/11/21 09:52:05;;;;;;;72.10;9.07;;;;;;;;;;4990241;28;20034;-54
2023/11/21 09:54:31;;;;;;;121.13;11.15;;;;;;;;;;4991496;28;20343;-54
2023/11/21 09:56:58;;;;;;;77.47;8.43;;;;;;;;;;4992278;28;20030;-54
2023/11/21 09:59:23;;;;;;;73.75;7.80;;;;;;;;;;4991752;28;20018;-54
2023/11/21 10:01:50;;;;;;;70.07;8.52;;;;;;;;;;4993021;28;20037;-54
2023/11/21 10:04:16;;;;;;;73.85;9.68;;;;;;;;;;4992199;28;20018;-54
2023/11/21 10:06:41;;;;;;;72.38;9.77;;;;;;;;;;4990746;28;20121;-54
2023/11/21 10:09:11;;;;;;;82.50;9.95;;;;;;;;;;4992913;28;20018;-54
2023/11/21 10:11:40;;;;;;;106.10;10.80;;;;;;;;;;4991999;28;20120;-53
2023/11/21 10:14:07;;;;;;;80.28;9.85;;;;;;;;;;4989962;28;20045;-54
2023/11/21 10:16:33;;;;;;;128.85;11.40;;;;;;;;;;4999042;28;20148;-54
2023/11/21 10:18:58;;;;;;;75.00;10.00;;;;;;;;;;4995607;28;20105;-54
2023/11/21 10:21:24;;;;;;;116.18;11.18;;;;;;;;;;4992597;28;20458;-54
2023/11/21 10:23:50;;;;;;;95.85;9.80;;;;;;;;;;4992621;28;20478;-54
2023/11/21 10:26:16;;;;;;;54.97;8.38;;;;;;;;;;4992768;28;20038;-54
2023/11/21 10:28:54;;;;;;;84.97;9.05;;;;;;;;;;4991463;28;20878;-53
2023/11/21 10:31:19;;;;;;;60.95;6.95;;;;;;;;;;4990124;28;20133;-54
2023/11/21 10:33:45;;;;;;;99.88;8.27;;;;;;;;;;4991972;28;20105;-54
2023/11/21 10:36:11;;;;;;;74.80;7.13;;;;;;;;;;4992070;28;20037;-53
2023/11/21 10:38:42;;;;;;;95.05;8.23;;;;;;;;;;4992566;28;20744;-55
2023/11/21 10:41:10;;;;;;;67.75;6.28;;;;;;;;;;4993762;28;20154;-54
2023/11/21 10:43:35;;;;;;;83.00;7.03;;;;;;;;;;4992168;28;20006;-54
2023/11/21 10:46:01;;;;;;;60.20;5.97;;;;;;;;;;4990659;28;20030;-54
2023/11/21 10:48:27;;;;;;;86.88;7.25;;;;;;;;;;4991417;28;20470;-53
2023/11/21 10:50:52;;;;;;;42.05;4.80;;;;;;;;;;4992454;28;20453;-54
2023/11/21 10:53:18;;;;;;;50.35;4.70;;;;;;;;;;4992985;28;20036;-53
2023/11/21 10:55:44;;;;;;;62.53;5.30;;;;;;;;;;4993923;28;20065;-54
2023/11/21 10:58:10;;;;;;;49.90;4.70;;;;;;;;;;4993486;28;20064;-54
2023/11/21 11:00:37;;;;;;;81.90;6.32;;;;;;;;;;4990004;28;20034;-54
2023/11/21 11:03:02;;;;;;;63.38;5.50;;;;;;;;;;4992603;28;20018;-54
2023/11/21 11:05:35;;;;;;;92.80;6.93;;;;;;;;;;4991231;28;20414;-53
2023/11/21 11:08:09;;;;;;;60.78;5.38;;;;;;;;;;4991952;28;20033;-54
2023/11/21 11:10:35;;;;;;;94.18;7.28;;;;;;;;;;4992823;28;20022;-53
2023/11/21 11:13:01;;;;;;;77.07;6.20;;;;;;;;;;4989926;28;20022;-54
2023/11/21 11:15:27;;;;;;;87.55;6.57;;;;;;;;;;4990650;28;20041;-54
2023/11/21 11:17:56;;;;;;;38.17;4.03;;;;;;;;;;4993018;28;20026;-54
2023/11/21 11:20:22;;;;;;;60.20;5.35;;;;;;;;;;4991148;28;20069;-54
2023/11/21 11:22:51;;;;;;;58.75;5.07;;;;;;;;;;4992411;28;20592;-54
2023/11/21 11:25:16;;;;;;;62.45;5.25;;;;;;;;;;4991635;28;20023;-54
2023/11/21 11:28:00;;;;;;;65.40;5.60;;;;;;;;;;4992859;28;20034;-54
2023/11/21 11:30:31;;;;;;;73.40;5.95;;;;;;;;;;4990705;28;20014;-54
2023/11/21 11:33:02;;;;;;;79.10;6.03;;;;;;;;;;4991934;28;20032;-54
2023/11/21 11:35:27;;;;;;;87.32;7.25;;;;;;;;;;4991962;28;20251;-54
2023/11/21 11:37:53;;;;;;;71.83;5.80;;;;;;;;;;4993623;28;20017;-54
2023/11/21 11:40:19;;;;;;;40.75;4.35;;;;;;;;;;4991874;28;20307;-54
2023/11/21 11:43:02;;;;;;;72.38;5.72;;;;;;;;;;4989593;28;20109;-54
2023/11/21 11:45:33;;;;;;;90.75;6.63;;;;;;;;;;4990652;28;20612;-54
2023/11/21 11:47:59;;;;;;;63.72;4.95;;;;;;;;;;4991783;28;20029;-54
2023/11/21 11:50:26;;;;;;;84.25;6.55;;;;;;;;;;4990094;28;20011;-54
2023/11/21 11:52:54;;;;;;;78.50;6.05;;;;;;;;;;4991167;28;20267;-54
2023/11/21 11:55:21;;;;;;;72.18;5.80;;;;;;;;;;4990285;28;20058;-54
2023/11/21 11:57:47;;;;;;;86.97;6.50;;;;;;;;;;4989742;28;20113;-54
2023/11/21 12:00:24;;;;;;;53.03;5.07;;;;;;;;;;4991373;28;20343;-54
2023/11/21 12:03:01;;;;;;;87.50;6.25;;;;;;;;;;4989837;28;20121;-54
2023/11/21 12:05:32;;;;;;;69.22;5.60;;;;;;;;;;4991090;28;20403;-53
2023/11/21 12:07:58;;;;;;;82.43;7.00;;;;;;;;;;4991222;28;20250;-54
2023/11/21 12:10:26;;;;;;;57.72;5.28;;;;;;;;;;4989862;28;20023;-54
2023/11/21 12:12:55;;;;;;;84.78;6.57;;;;;;;;;;4994035;28;20014;-55
2023/11/21 12:15:21;;;;;;;57.90;5.50;;;;;;;;;;4990943;28;20036;-54
2023/11/21 12:17:46;;;;;;;46.13;4.38;;;;;;;;;;4989391;28;20023;-53
2023/11/21 12:20:17;;;;;;;83.13;5.80;;;;;;;;;;4988147;28;20049;-54
2023/11/21 12:22:49;;;;;;;84.57;6.57;;;;;;;;;;4990010;28;20156;-54
2023/11/21 12:25:15;;;;;;;;;;;;;;;;;;4992017;28;20038;-53
2023/11/21 12:27:41;;;;;;;112.97;7.60;;;;;;;;;;4987737;28;19914;-55
2023/11/21 12:30:13;;;;;;;55.83;4.40;;;;;;;;;;4990614;28;20067;-54
2023/11/21 12:32:38;;;;;;;115.45;7.93;;;;;;;;;;4988761;28;20172;-55
2023/11/21 12:35:06;;;;;;;52.90;4.80;;;;;;;;;;4989677;28;20438;-54
2023/11/21 12:37:31;;;;;;;99.45;6.72;;;;;;;;;;5008953;28;20351;-55
2023/11/21 12:39:57;;;;;;;93.85;6.65;;;;;;;;;;5009373;28;20063;-54
2023/11/21 12:42:23;;;;;;;56.80;4.82;;;;;;;;;;5011457;28;20140;-54
2023/11/21 12:45:06;;;;;;;52.88;4.55;;;;;;;;;;5010035;28;20014;-54
2023/11/21 12:47:34;;;;;;;70.50;5.35;;;;;;;;;;5008814;28;20120;-54
2023/11/21 12:50:01;;;;;;;50.75;4.28;;;;;;;;;;5009829;28;20481;-53
2023/11/21 12:52:27;;;;;;;86.93;6.07;;;;;;;;;;5007312;28;20034;-53
2023/11/21 12:54:52;;;;;;;51.65;4.47;;;;;;;;;;5010645;28;20441;-54
2023/11/21 12:57:18;;;;;;;68.88;5.45;;;;;;;;;;5009025;28;20037;-53
2023/11/21 12:59:45;;;;;;;95.88;6.50;;;;;;;;;;5008988;28;20455;-54
2023/11/21 13:02:13;;;;;;;70.80;5.28;;;;;;;;;;5012672;28;20454;-54
2023/11/21 13:04:39;;;;;;;91.30;6.15;;;;;;;;;;5007721;28;20715;-53
2023/11/21 13:07:14;;;;;;;62.85;4.85;;;;;;;;;;5010080;28;20557;-54
2023/11/21 13:09:39;;;;;;;72.50;5.07;;;;;;;;;;5007922;28;20470;-54
2023/11/21 13:12:08;;;;;;;92.78;6.30;;;;;;;;;;5008127;28;20108;-54
2023/11/21 13:14:33;;;;;;;83.13;5.65;;;;;;;;;;5010323;28;20029;-54
2023/11/21 13:16:59;;;;;;;70.45;5.18;;;;;;;;;;5008307;28;20084;-54
2023/11/21 13:19:24;;;;;;;61.10;4.55;;;;;;;;;;5008197;28;20014;-53
2023/11/21 13:21:49;;;;;;;77.93;5.65;;;;;;;;;;5007059;28;20401;-53
2023/11/21 13:24:16;;;;;;;79.25;5.78;;;;;;;;;;5009673;28;20389;-54
2023/11/21 13:26:42;;;;;;;88.97;6.38;;;;;;;;;;5008190;28;20518;-54
2023/11/21 13:29:08;;;;;;;53.25;4.72;;;;;;;;;;5014627;28;20025;-54
2023/11/21 13:31:36;;;;;;;134.07;8.23;;;;;;;;;;5009861;28;20037;-54
2023/11/21 13:34:05;;;;;;;65.78;4.80;;;;;;;;;;5013466;28;20026;-55
2023/11/21 13:36:33;;;;;;;78.80;5.45;;;;;;;;;;5011286;28;20567;-53
2023/11/21 13:39:07;;;;;;;62.65;4.75;;;;;;;;;;5012818;28;20160;-54
2023/11/21 13:41:33;;;;;;;86.38;6.10;;;;;;;;;;5011980;28;20034;-54
2023/11/21 13:44:46;;;;;;;83.30;6.10;;;;;;;;;;5013403;28;20424;-53
2023/11/21 13:46:45;;;;;;;84.93;6.05;;;;;;;;;;5006991;28;20041;-54
2023/11/21 13:49:11;;;;;;;77.10;5.50;;;;;;;;;;5016407;28;20025;-54
2023/11/21 13:51:44;;;;;;;101.43;6.88;;;;;;;;;;5011622;28;20036;-54
2023/11/21 13:54:10;;;;;;;61.90;5.03;;;;;;;;;;5011192;28;20044;-54
2023/11/21 13:56:35;;;;;;;119.10;7.63;;;;;;;;;;5013973;28;20033;-54
2023/11/21 13:59:09;;;;;;;57.78;4.78;;;;;;;;;;5013018;28;20024;-54
2023/11/21 14:02:17;;;;;;;102.40;6.75;;;;;;;;;;5010825;28;20107;-55
2023/11/21 14:06:58;;;;;;;79.18;5.53;;;;;;;;;;5012544;28;20047;-55
2023/11/21 14:09:25;;;;;;;74.25;5.10;;;;;;;;;;5015030;28;20501;-54
2023/11/21 14:11:56;;;;;;;84.40;5.65;;;;;;;;;;5011655;28;20040;-55
2023/11/21 14:14:22;;;;;;;69.68;5.18;;;;;;;;;;5011183;28;20018;-54
2023/11/21 14:16:47;;;;;;;83.88;5.95;;;;;;;;;;5012330;28;20516;-54
2023/11/21 14:19:15;;;;;;;89.53;5.95;;;;;;;;;;5013537;28;20084;-54
2023/11/21 14:21:44;;;;;;;108.22;6.65;;;;;;;;;;5008944;28;20049;-54